sensor_id;sensor_type;location;lat;lon;timestamp;P1;durP1;ratioP1;P2;durP2;ratioP2
40951;SDS011;26682;51.660;19.338;2024-03-08T00:01:47;198.45;;;83.85;;
40951;SDS011;26682;51.660;19.338;2024-03-08T00:04:29;198.65;;;88.32;;
40951;SDS011;26682;51.660;19.338;2024-03-08T00:07:12;212.40;;;91.22;;
40951;SDS011;26682;51.660;19.338;2024-03-08T00:09:55;222.88;;;90.80;;
40951;SDS011;26682;51.660;19.338;2024-03-08T00:12:38;208.23;;;87.03;;
40951;SDS011;26682;51.660;19.338;2024-03-08T00:18:06;176.82;;;79.25;;
40951;SDS011;26682;51.660;19.338;2024-03-08T00:20:49;186.88;;;82.15;;
40951;SDS011;26682;51.660;19.338;2024-03-08T00:23:33;210.82;;;89.93;;
40951;SDS011;26682;51.660;19.338;2024-03-08T00:26:15;207.25;;;88.82;;
40951;SDS011;26682;51.660;19.338;2024-03-08T00:28:57;210.60;;;90.55;;
40951;SDS011;26682;51.660;19.338;2024-03-08T00:31:40;240.90;;;96.25;;
40951;SDS011;26682;51.660;19.338;2024-03-08T00:34:22;232.02;;;96.32;;
40951;SDS011;26682;51.660;19.338;2024-03-08T00:37:05;212.73;;;92.10;;
40951;SDS011;26682;51.660;19.338;2024-03-08T00:39:47;226.05;;;99.25;;
40951;SDS011;26682;51.660;19.338;2024-03-08T00:42:31;238.57;;;100.50;;
40951;SDS011;26682;51.660;19.338;2024-03-08T00:45:15;228.45;;;98.93;;
40951;SDS011;26682;51.660;19.338;2024-03-08T00:47:57;237.05;;;102.85;;
40951;SDS011;26682;51.660;19.338;2024-03-08T00:50:40;235.65;;;103.05;;
40951;SDS011;26682;51.660;19.338;2024-03-08T00:53:22;228.10;;;99.68;;
40951;SDS011;26682;51.660;19.338;2024-03-08T00:56:05;227.95;;;98.40;;
40951;SDS011;26682;51.660;19.338;2024-03-08T00:58:47;247.20;;;103.22;;
40951;SDS011;26682;51.660;19.338;2024-03-08T01:01:29;262.77;;;106.68;;
40951;SDS011;26682;51.660;19.338;2024-03-08T01:04:12;233.48;;;99.70;;
40951;SDS011;26682;51.660;19.338;2024-03-08T01:06:57;247.05;;;104.93;;
40951;SDS011;26682;51.660;19.338;2024-03-08T01:09:40;278.10;;;115.45;;
40951;SDS011;26682;51.660;19.338;2024-03-08T01:12:22;259.52;;;107.75;;
40951;SDS011;26682;51.660;19.338;2024-03-08T01:15:05;203.50;;;89.25;;
40951;SDS011;26682;51.660;19.338;2024-03-08T01:17:48;186.82;;;84.75;;
40951;SDS011;26682;51.660;19.338;2024-03-08T01:20:31;184.45;;;83.05;;
40951;SDS011;26682;51.660;19.338;2024-03-08T01:23:13;167.32;;;75.85;;
40951;SDS011;26682;51.660;19.338;2024-03-08T01:25:56;150.02;;;69.15;;
40951;SDS011;26682;51.660;19.338;2024-03-08T01:28:38;140.27;;;67.53;;
40951;SDS011;26682;51.660;19.338;2024-03-08T01:31:21;152.98;;;70.43;;
40951;SDS011;26682;51.660;19.338;2024-03-08T01:34:03;146.02;;;65.97;;
40951;SDS011;26682;51.660;19.338;2024-03-08T01:36:46;125.82;;;62.13;;
40951;SDS011;26682;51.660;19.338;2024-03-08T01:39:28;129.13;;;63.45;;
40951;SDS011;26682;51.660;19.338;2024-03-08T01:42:11;133.73;;;63.40;;
40951;SDS011;26682;51.660;19.338;2024-03-08T01:44:56;143.55;;;65.35;;
40951;SDS011;26682;51.660;19.338;2024-03-08T01:47:39;144.23;;;64.45;;
40951;SDS011;26682;51.660;19.338;2024-03-08T01:50:22;141.32;;;64.00;;
40951;SDS011;26682;51.660;19.338;2024-03-08T01:53:05;123.25;;;61.88;;
40951;SDS011;26682;51.660;19.338;2024-03-08T01:55:48;137.43;;;64.38;;
40951;SDS011;26682;51.660;19.338;2024-03-08T01:58:31;142.90;;;64.95;;
40951;SDS011;26682;51.660;19.338;2024-03-08T02:01:14;126.80;;;63.45;;
40951;SDS011;26682;51.660;19.338;2024-03-08T02:03:57;124.10;;;61.65;;
40951;SDS011;26682;51.660;19.338;2024-03-08T02:06:40;124.35;;;60.72;;
40951;SDS011;26682;51.660;19.338;2024-03-08T02:09:22;129.02;;;63.05;;
40951;SDS011;26682;51.660;19.338;2024-03-08T02:12:06;118.38;;;58.90;;
40951;SDS011;26682;51.660;19.338;2024-03-08T02:17:35;118.80;;;57.13;;
40951;SDS011;26682;51.660;19.338;2024-03-08T02:20:18;116.85;;;59.10;;
40951;SDS011;26682;51.660;19.338;2024-03-08T02:23:01;118.53;;;59.58;;
40951;SDS011;26682;51.660;19.338;2024-03-08T02:25:44;112.43;;;57.78;;
40951;SDS011;26682;51.660;19.338;2024-03-08T02:28:26;118.82;;;59.17;;
40951;SDS011;26682;51.660;19.338;2024-03-08T02:31:09;118.72;;;57.78;;
40951;SDS011;26682;51.660;19.338;2024-03-08T02:33:52;118.80;;;61.00;;
40951;SDS011;26682;51.660;19.338;2024-03-08T02:36:36;108.32;;;57.25;;
40951;SDS011;26682;51.660;19.338;2024-03-08T02:39:18;116.47;;;58.72;;
40951;SDS011;26682;51.660;19.338;2024-03-08T02:42:02;124.97;;;59.85;;
40951;SDS011;26682;51.660;19.338;2024-03-08T02:44:44;117.57;;;58.50;;
40951;SDS011;26682;51.660;19.338;2024-03-08T02:47:27;123.30;;;61.42;;
40951;SDS011;26682;51.660;19.338;2024-03-08T02:50:10;121.10;;;60.60;;
40951;SDS011;26682;51.660;19.338;2024-03-08T02:52:53;118.90;;;60.95;;
40951;SDS011;26682;51.660;19.338;2024-03-08T02:55:36;115.07;;;58.97;;
40951;SDS011;26682;51.660;19.338;2024-03-08T02:58:23;121.15;;;61.00;;
40951;SDS011;26682;51.660;19.338;2024-03-08T03:01:06;129.85;;;66.07;;
40951;SDS011;26682;51.660;19.338;2024-03-08T03:03:48;162.65;;;78.25;;
40951;SDS011;26682;51.660;19.338;2024-03-08T03:06:31;299.92;;;124.32;;
40951;SDS011;26682;51.660;19.338;2024-03-08T03:09:15;393.52;;;149.57;;
40951;SDS011;26682;51.660;19.338;2024-03-08T03:11:59;354.88;;;135.18;;
40951;SDS011;26682;51.660;19.338;2024-03-08T03:14:41;313.85;;;128.02;;
40951;SDS011;26682;51.660;19.338;2024-03-08T03:17:24;306.13;;;129.85;;
40951;SDS011;26682;51.660;19.338;2024-03-08T03:20:07;326.55;;;130.95;;
40951;SDS011;26682;51.660;19.338;2024-03-08T03:22:54;311.67;;;131.52;;
40951;SDS011;26682;51.660;19.338;2024-03-08T03:25:39;306.27;;;130.48;;
40951;SDS011;26682;51.660;19.338;2024-03-08T03:28:22;262.30;;;115.85;;
40951;SDS011;26682;51.660;19.338;2024-03-08T03:31:06;227.02;;;103.70;;
40951;SDS011;26682;51.660;19.338;2024-03-08T03:33:51;214.65;;;97.15;;
40951;SDS011;26682;51.660;19.338;2024-03-08T03:36:34;195.50;;;91.90;;
40951;SDS011;26682;51.660;19.338;2024-03-08T03:39:17;190.70;;;87.50;;
40951;SDS011;26682;51.660;19.338;2024-03-08T03:42:02;190.45;;;89.10;;
40951;SDS011;26682;51.660;19.338;2024-03-08T03:44:48;187.52;;;91.25;;
40951;SDS011;26682;51.660;19.338;2024-03-08T03:47:30;180.05;;;90.85;;
40951;SDS011;26682;51.660;19.338;2024-03-08T03:50:13;170.27;;;86.43;;
40951;SDS011;26682;51.660;19.338;2024-03-08T03:52:56;162.65;;;78.88;;
40951;SDS011;26682;51.660;19.338;2024-03-08T03:55:39;143.63;;;71.65;;
40951;SDS011;26682;51.660;19.338;2024-03-08T03:58:22;136.40;;;68.00;;
40951;SDS011;26682;51.660;19.338;2024-03-08T04:01:05;124.00;;;65.13;;
40951;SDS011;26682;51.660;19.338;2024-03-08T04:03:47;130.88;;;64.28;;
40951;SDS011;26682;51.660;19.338;2024-03-08T04:06:30;134.93;;;63.72;;
40951;SDS011;26682;51.660;19.338;2024-03-08T04:09:12;136.63;;;65.65;;
40951;SDS011;26682;51.660;19.338;2024-03-08T04:11:55;129.95;;;65.00;;
40951;SDS011;26682;51.660;19.338;2024-03-08T04:14:42;125.25;;;63.63;;
40951;SDS011;26682;51.660;19.338;2024-03-08T04:17:24;129.67;;;64.00;;
40951;SDS011;26682;51.660;19.338;2024-03-08T04:20:07;135.93;;;66.03;;
40951;SDS011;26682;51.660;19.338;2024-03-08T04:22:52;137.45;;;64.57;;
40951;SDS011;26682;51.660;19.338;2024-03-08T04:25:34;118.82;;;61.00;;
40951;SDS011;26682;51.660;19.338;2024-03-08T04:28:16;127.20;;;61.45;;
40951;SDS011;26682;51.660;19.338;2024-03-08T04:30:59;120.32;;;61.60;;
40951;SDS011;26682;51.660;19.338;2024-03-08T04:33:44;132.45;;;61.65;;
40951;SDS011;26682;51.660;19.338;2024-03-08T04:36:27;124.53;;;59.85;;
40951;SDS011;26682;51.660;19.338;2024-03-08T04:39:10;126.28;;;62.50;;
40951;SDS011;26682;51.660;19.338;2024-03-08T04:41:55;139.18;;;61.95;;
40951;SDS011;26682;51.660;19.338;2024-03-08T04:44:43;128.35;;;61.95;;
40951;SDS011;26682;51.660;19.338;2024-03-08T04:47:26;133.35;;;62.63;;
40951;SDS011;26682;51.660;19.338;2024-03-08T04:50:09;144.20;;;65.00;;
40951;SDS011;26682;51.660;19.338;2024-03-08T04:52:51;137.75;;;64.43;;
40951;SDS011;26682;51.660;19.338;2024-03-08T04:55:34;140.57;;;67.45;;
40951;SDS011;26682;51.660;19.338;2024-03-08T04:58:16;146.32;;;69.15;;
40951;SDS011;26682;51.660;19.338;2024-03-08T05:00:59;151.40;;;67.13;;
40951;SDS011;26682;51.660;19.338;2024-03-08T05:03:41;143.07;;;67.72;;
40951;SDS011;26682;51.660;19.338;2024-03-08T05:06:24;147.63;;;66.00;;
40951;SDS011;26682;51.660;19.338;2024-03-08T05:09:07;129.88;;;66.40;;
40951;SDS011;26682;51.660;19.338;2024-03-08T05:11:56;144.05;;;69.35;;
40951;SDS011;26682;51.660;19.338;2024-03-08T05:14:40;154.27;;;75.65;;
40951;SDS011;26682;51.660;19.338;2024-03-08T05:17:23;150.20;;;75.68;;
40951;SDS011;26682;51.660;19.338;2024-03-08T05:20:06;190.90;;;90.93;;
40951;SDS011;26682;51.660;19.338;2024-03-08T05:22:54;220.13;;;95.03;;
40951;SDS011;26682;51.660;19.338;2024-03-08T05:25:36;222.10;;;96.35;;
40951;SDS011;26682;51.660;19.338;2024-03-08T05:28:19;274.80;;;107.78;;
40951;SDS011;26682;51.660;19.338;2024-03-08T05:31:02;256.85;;;107.43;;
40951;SDS011;26682;51.660;19.338;2024-03-08T05:33:45;210.85;;;93.18;;
40951;SDS011;26682;51.660;19.338;2024-03-08T05:36:28;183.73;;;86.28;;
40951;SDS011;26682;51.660;19.338;2024-03-08T05:39:11;172.90;;;84.57;;
40951;SDS011;26682;51.660;19.338;2024-03-08T05:41:54;178.63;;;83.15;;
40951;SDS011;26682;51.660;19.338;2024-03-08T05:44:37;158.68;;;81.85;;
40951;SDS011;26682;51.660;19.338;2024-03-08T05:47:19;148.23;;;82.80;;
40951;SDS011;26682;51.660;19.338;2024-03-08T05:50:02;149.10;;;75.82;;
40951;SDS011;26682;51.660;19.338;2024-03-08T05:52:45;137.02;;;74.45;;
40951;SDS011;26682;51.660;19.338;2024-03-08T05:55:29;129.80;;;68.95;;
40951;SDS011;26682;51.660;19.338;2024-03-08T05:58:12;145.18;;;73.07;;
40951;SDS011;26682;51.660;19.338;2024-03-08T06:00:54;128.60;;;67.97;;
40951;SDS011;26682;51.660;19.338;2024-03-08T06:03:37;122.97;;;65.45;;
40951;SDS011;26682;51.660;19.338;2024-03-08T06:06:25;123.25;;;63.70;;
40951;SDS011;26682;51.660;19.338;2024-03-08T06:09:08;118.07;;;61.40;;
40951;SDS011;26682;51.660;19.338;2024-03-08T06:11:54;94.10;;;53.78;;
40951;SDS011;26682;51.660;19.338;2024-03-08T06:14:37;94.18;;;50.60;;
40951;SDS011;26682;51.660;19.338;2024-03-08T06:17:19;101.03;;;49.85;;
40951;SDS011;26682;51.660;19.338;2024-03-08T06:20:02;92.13;;;49.33;;
40951;SDS011;26682;51.660;19.338;2024-03-08T06:22:45;88.22;;;46.78;;
40951;SDS011;26682;51.660;19.338;2024-03-08T06:25:28;85.57;;;47.15;;
40951;SDS011;26682;51.660;19.338;2024-03-08T06:28:10;71.47;;;41.35;;
40951;SDS011;26682;51.660;19.338;2024-03-08T06:30:53;75.55;;;40.97;;
40951;SDS011;26682;51.660;19.338;2024-03-08T06:33:35;84.97;;;41.60;;
40951;SDS011;26682;51.660;19.338;2024-03-08T06:36:18;76.30;;;41.55;;
40951;SDS011;26682;51.660;19.338;2024-03-08T06:39:03;81.05;;;41.00;;
40951;SDS011;26682;51.660;19.338;2024-03-08T06:41:51;77.50;;;38.80;;
40951;SDS011;26682;51.660;19.338;2024-03-08T06:44:34;79.97;;;38.47;;
40951;SDS011;26682;51.660;19.338;2024-03-08T06:47:16;78.57;;;38.80;;
40951;SDS011;26682;51.660;19.338;2024-03-08T06:49:59;91.45;;;41.47;;
40951;SDS011;26682;51.660;19.338;2024-03-08T06:52:42;78.50;;;37.88;;
40951;SDS011;26682;51.660;19.338;2024-03-08T06:55:26;87.07;;;40.13;;
40951;SDS011;26682;51.660;19.338;2024-03-08T06:58:08;73.82;;;37.10;;
40951;SDS011;26682;51.660;19.338;2024-03-08T07:00:52;62.55;;;34.50;;
40951;SDS011;26682;51.660;19.338;2024-03-08T07:03:35;60.35;;;33.70;;
40951;SDS011;26682;51.660;19.338;2024-03-08T07:06:18;68.07;;;34.30;;
40951;SDS011;26682;51.660;19.338;2024-03-08T07:09:01;71.00;;;33.85;;
40951;SDS011;26682;51.660;19.338;2024-03-08T07:11:44;62.10;;;31.45;;
40951;SDS011;26682;51.660;19.338;2024-03-08T07:14:27;55.78;;;28.60;;
40951;SDS011;26682;51.660;19.338;2024-03-08T07:17:11;61.15;;;29.00;;
40951;SDS011;26682;51.660;19.338;2024-03-08T07:19:54;49.58;;;26.90;;
40951;SDS011;26682;51.660;19.338;2024-03-08T07:22:36;48.70;;;26.17;;
40951;SDS011;26682;51.660;19.338;2024-03-08T07:25:20;44.22;;;25.83;;
40951;SDS011;26682;51.660;19.338;2024-03-08T07:28:04;46.00;;;26.23;;
40951;SDS011;26682;51.660;19.338;2024-03-08T07:30:50;41.47;;;24.20;;
40951;SDS011;26682;51.660;19.338;2024-03-08T07:33:33;41.75;;;26.67;;
40951;SDS011;26682;51.660;19.338;2024-03-08T07:36:16;32.90;;;20.75;;
40951;SDS011;26682;51.660;19.338;2024-03-08T07:38:58;35.08;;;19.95;;
40951;SDS011;26682;51.660;19.338;2024-03-08T07:41:42;30.27;;;19.48;;
40951;SDS011;26682;51.660;19.338;2024-03-08T07:44:24;33.05;;;21.05;;
40951;SDS011;26682;51.660;19.338;2024-03-08T07:47:07;25.63;;;16.73;;
40951;SDS011;26682;51.660;19.338;2024-03-08T07:49:51;27.88;;;18.25;;
40951;SDS011;26682;51.660;19.338;2024-03-08T07:52:34;27.00;;;16.30;;
40951;SDS011;26682;51.660;19.338;2024-03-08T07:55:17;23.23;;;15.70;;
40951;SDS011;26682;51.660;19.338;2024-03-08T07:58:01;22.92;;;14.68;;
40951;SDS011;26682;51.660;19.338;2024-03-08T08:00:44;22.45;;;14.70;;
40951;SDS011;26682;51.660;19.338;2024-03-08T08:03:27;27.85;;;16.98;;
40951;SDS011;26682;51.660;19.338;2024-03-08T08:06:09;26.13;;;14.93;;
40951;SDS011;26682;51.660;19.338;2024-03-08T08:08:53;21.20;;;15.27;;
40951;SDS011;26682;51.660;19.338;2024-03-08T08:11:36;28.23;;;15.77;;
40951;SDS011;26682;51.660;19.338;2024-03-08T08:14:18;22.65;;;16.13;;
40951;SDS011;26682;51.660;19.338;2024-03-08T08:17:02;22.48;;;15.60;;
40951;SDS011;26682;51.660;19.338;2024-03-08T08:19:46;30.98;;;17.92;;
40951;SDS011;26682;51.660;19.338;2024-03-08T08:22:29;27.48;;;17.25;;
40951;SDS011;26682;51.660;19.338;2024-03-08T08:25:11;29.80;;;17.25;;
40951;SDS011;26682;51.660;19.338;2024-03-08T08:27:55;25.52;;;15.65;;
40951;SDS011;26682;51.660;19.338;2024-03-08T08:30:38;25.10;;;16.10;;
40951;SDS011;26682;51.660;19.338;2024-03-08T08:33:20;28.10;;;15.45;;
40951;SDS011;26682;51.660;19.338;2024-03-08T08:36:03;27.75;;;15.95;;
40951;SDS011;26682;51.660;19.338;2024-03-08T08:38:45;26.80;;;16.55;;
40951;SDS011;26682;51.660;19.338;2024-03-08T08:41:28;28.02;;;15.85;;
40951;SDS011;26682;51.660;19.338;2024-03-08T08:44:11;32.38;;;16.00;;
40951;SDS011;26682;51.660;19.338;2024-03-08T08:46:57;28.70;;;17.38;;
40951;SDS011;26682;51.660;19.338;2024-03-08T08:49:53;26.70;;;16.87;;
40951;SDS011;26682;51.660;19.338;2024-03-08T08:52:36;24.23;;;16.45;;
40951;SDS011;26682;51.660;19.338;2024-03-08T08:55:21;25.50;;;16.40;;
40951;SDS011;26682;51.660;19.338;2024-03-08T08:58:08;22.33;;;15.48;;
40951;SDS011;26682;51.660;19.338;2024-03-08T09:00:50;30.45;;;14.93;;
40951;SDS011;26682;51.660;19.338;2024-03-08T09:03:34;20.15;;;13.48;;
40951;SDS011;26682;51.660;19.338;2024-03-08T09:06:16;20.77;;;14.23;;
40951;SDS011;26682;51.660;19.338;2024-03-08T09:09:00;18.17;;;13.13;;
40951;SDS011;26682;51.660;19.338;2024-03-08T09:11:45;22.37;;;14.43;;
40951;SDS011;26682;51.660;19.338;2024-03-08T09:14:28;21.02;;;13.93;;
40951;SDS011;26682;51.660;19.338;2024-03-08T09:17:11;17.63;;;13.65;;
40951;SDS011;26682;51.660;19.338;2024-03-08T09:19:54;20.55;;;13.23;;
40951;SDS011;26682;51.660;19.338;2024-03-08T09:22:36;19.67;;;13.43;;
40951;SDS011;26682;51.660;19.338;2024-03-08T09:25:19;23.83;;;14.43;;
40951;SDS011;26682;51.660;19.338;2024-03-08T09:28:01;24.88;;;13.25;;
40951;SDS011;26682;51.660;19.338;2024-03-08T09:30:44;19.35;;;12.63;;
40951;SDS011;26682;51.660;19.338;2024-03-08T09:33:40;20.92;;;13.85;;
40951;SDS011;26682;51.660;19.338;2024-03-08T09:36:24;21.25;;;12.93;;
40951;SDS011;26682;51.660;19.338;2024-03-08T09:39:06;23.30;;;12.18;;
40951;SDS011;26682;51.660;19.338;2024-03-08T09:41:49;22.20;;;11.05;;
40951;SDS011;26682;51.660;19.338;2024-03-08T09:44:31;19.67;;;11.65;;
40951;SDS011;26682;51.660;19.338;2024-03-08T09:47:15;20.63;;;12.48;;
40951;SDS011;26682;51.660;19.338;2024-03-08T09:49:58;17.38;;;12.00;;
40951;SDS011;26682;51.660;19.338;2024-03-08T09:52:41;36.83;;;13.27;;
40951;SDS011;26682;51.660;19.338;2024-03-08T09:55:25;13.35;;;9.32;;
40951;SDS011;26682;51.660;19.338;2024-03-08T09:58:14;22.90;;;11.90;;
40951;SDS011;26682;51.660;19.338;2024-03-08T10:01:18;19.50;;;12.02;;
40951;SDS011;26682;51.660;19.338;2024-03-08T10:04:02;18.60;;;11.05;;
40951;SDS011;26682;51.660;19.338;2024-03-08T10:06:44;17.85;;;11.25;;
40951;SDS011;26682;51.660;19.338;2024-03-08T10:09:29;20.30;;;11.38;;
40951;SDS011;26682;51.660;19.338;2024-03-08T10:12:12;16.52;;;11.30;;
40951;SDS011;26682;51.660;19.338;2024-03-08T10:14:55;17.05;;;10.88;;
40951;SDS011;26682;51.660;19.338;2024-03-08T10:17:38;15.23;;;10.98;;
40951;SDS011;26682;51.660;19.338;2024-03-08T10:20:22;18.50;;;11.15;;
40951;SDS011;26682;51.660;19.338;2024-03-08T10:23:05;15.88;;;10.68;;
40951;SDS011;26682;51.660;19.338;2024-03-08T10:25:53;13.18;;;10.27;;
40951;SDS011;26682;51.660;19.338;2024-03-08T10:28:36;16.02;;;10.60;;
40951;SDS011;26682;51.660;19.338;2024-03-08T10:31:19;14.80;;;11.30;;
40951;SDS011;26682;51.660;19.338;2024-03-08T10:34:03;15.43;;;10.23;;
40951;SDS011;26682;51.660;19.338;2024-03-08T10:36:47;20.40;;;11.10;;
40951;SDS011;26682;51.660;19.338;2024-03-08T10:39:36;12.90;;;9.43;;
40951;SDS011;26682;51.660;19.338;2024-03-08T10:42:18;18.85;;;9.35;;
40951;SDS011;26682;51.660;19.338;2024-03-08T10:45:15;15.10;;;10.85;;
40951;SDS011;26682;51.660;19.338;2024-03-08T10:48:23;13.35;;;9.52;;
40951;SDS011;26682;51.660;19.338;2024-03-08T10:51:10;15.77;;;10.48;;
40951;SDS011;26682;51.660;19.338;2024-03-08T10:53:54;15.52;;;10.23;;
40951;SDS011;26682;51.660;19.338;2024-03-08T10:56:38;18.88;;;9.88;;
40951;SDS011;26682;51.660;19.338;2024-03-08T10:59:22;16.10;;;9.10;;
40951;SDS011;26682;51.660;19.338;2024-03-08T11:02:05;14.95;;;9.73;;
40951;SDS011;26682;51.660;19.338;2024-03-08T11:04:48;14.23;;;10.70;;
40951;SDS011;26682;51.660;19.338;2024-03-08T11:07:35;17.30;;;11.13;;
40951;SDS011;26682;51.660;19.338;2024-03-08T11:10:18;17.40;;;10.63;;
40951;SDS011;26682;51.660;19.338;2024-03-08T11:13:02;17.10;;;9.50;;
40951;SDS011;26682;51.660;19.338;2024-03-08T11:15:46;12.10;;;9.10;;
40951;SDS011;26682;51.660;19.338;2024-03-08T11:18:30;18.73;;;9.88;;
40951;SDS011;26682;51.660;19.338;2024-03-08T11:21:15;15.23;;;10.10;;
40951;SDS011;26682;51.660;19.338;2024-03-08T11:24:07;13.25;;;9.65;;
40951;SDS011;26682;51.660;19.338;2024-03-08T11:26:56;18.27;;;10.57;;
40951;SDS011;26682;51.660;19.338;2024-03-08T11:29:43;16.00;;;9.93;;
40951;SDS011;26682;51.660;19.338;2024-03-08T11:32:29;17.10;;;9.68;;
40951;SDS011;26682;51.660;19.338;2024-03-08T11:35:23;14.95;;;9.88;;
40951;SDS011;26682;51.660;19.338;2024-03-08T11:38:07;17.33;;;10.30;;
40951;SDS011;26682;51.660;19.338;2024-03-08T11:40:50;17.98;;;11.60;;
40951;SDS011;26682;51.660;19.338;2024-03-08T11:43:33;19.88;;;12.60;;
40951;SDS011;26682;51.660;19.338;2024-03-08T11:46:17;19.58;;;12.05;;
40951;SDS011;26682;51.660;19.338;2024-03-08T11:49:00;21.83;;;12.32;;
40951;SDS011;26682;51.660;19.338;2024-03-08T11:51:43;20.88;;;11.23;;
40951;SDS011;26682;51.660;19.338;2024-03-08T11:54:26;18.90;;;11.85;;
40951;SDS011;26682;51.660;19.338;2024-03-08T11:57:08;15.13;;;9.75;;
40951;SDS011;26682;51.660;19.338;2024-03-08T11:59:52;15.10;;;9.65;;
40951;SDS011;26682;51.660;19.338;2024-03-08T12:02:39;21.85;;;11.00;;
40951;SDS011;26682;51.660;19.338;2024-03-08T12:05:24;16.50;;;9.93;;
40951;SDS011;26682;51.660;19.338;2024-03-08T12:08:06;16.50;;;11.07;;
40951;SDS011;26682;51.660;19.338;2024-03-08T12:10:54;15.18;;;10.73;;
40951;SDS011;26682;51.660;19.338;2024-03-08T12:13:41;22.13;;;11.38;;
40951;SDS011;26682;51.660;19.338;2024-03-08T12:16:24;17.65;;;10.80;;
40951;SDS011;26682;51.660;19.338;2024-03-08T12:19:06;17.35;;;10.73;;
40951;SDS011;26682;51.660;19.338;2024-03-08T12:21:49;27.23;;;15.73;;
40951;SDS011;26682;51.660;19.338;2024-03-08T12:24:31;17.25;;;10.93;;
40951;SDS011;26682;51.660;19.338;2024-03-08T12:27:18;15.90;;;10.35;;
40951;SDS011;26682;51.660;19.338;2024-03-08T12:30:14;16.42;;;10.95;;
40951;SDS011;26682;51.660;19.338;2024-03-08T12:33:04;19.80;;;11.20;;
40951;SDS011;26682;51.660;19.338;2024-03-08T12:35:51;20.40;;;11.70;;
40951;SDS011;26682;51.660;19.338;2024-03-08T12:38:43;18.38;;;11.30;;
40951;SDS011;26682;51.660;19.338;2024-03-08T12:41:29;21.75;;;12.85;;
40951;SDS011;26682;51.660;19.338;2024-03-08T12:44:12;20.10;;;11.55;;
40951;SDS011;26682;51.660;19.338;2024-03-08T12:46:55;20.85;;;12.13;;
40951;SDS011;26682;51.660;19.338;2024-03-08T12:49:38;17.70;;;11.57;;
40951;SDS011;26682;51.660;19.338;2024-03-08T12:52:20;17.02;;;10.88;;
40951;SDS011;26682;51.660;19.338;2024-03-08T12:55:03;17.85;;;11.63;;
40951;SDS011;26682;51.660;19.338;2024-03-08T12:57:48;17.23;;;11.20;;
40951;SDS011;26682;51.660;19.338;2024-03-08T13:00:31;27.08;;;11.63;;
40951;SDS011;26682;51.660;19.338;2024-03-08T13:03:13;19.63;;;12.13;;
40951;SDS011;26682;51.660;19.338;2024-03-08T13:05:56;22.13;;;12.82;;
40951;SDS011;26682;51.660;19.338;2024-03-08T13:08:38;21.65;;;12.70;;
40951;SDS011;26682;51.660;19.338;2024-03-08T13:11:24;22.67;;;11.95;;
40951;SDS011;26682;51.660;19.338;2024-03-08T13:14:07;21.98;;;12.55;;
40951;SDS011;26682;51.660;19.338;2024-03-08T13:16:50;21.20;;;12.13;;
40951;SDS011;26682;51.660;19.338;2024-03-08T13:19:33;26.35;;;10.80;;
40951;SDS011;26682;51.660;19.338;2024-03-08T13:22:16;16.13;;;9.48;;
40951;SDS011;26682;51.660;19.338;2024-03-08T13:24:59;20.58;;;10.55;;
40951;SDS011;26682;51.660;19.338;2024-03-08T13:27:43;14.93;;;9.93;;
40951;SDS011;26682;51.660;19.338;2024-03-08T13:30:25;12.38;;;8.82;;
40951;SDS011;26682;51.660;19.338;2024-03-08T13:33:08;14.85;;;9.68;;
40951;SDS011;26682;51.660;19.338;2024-03-08T13:35:51;20.15;;;10.27;;
40951;SDS011;26682;51.660;19.338;2024-03-08T13:38:34;14.07;;;9.68;;
40951;SDS011;26682;51.660;19.338;2024-03-08T13:41:18;18.92;;;10.43;;
40951;SDS011;26682;51.660;19.338;2024-03-08T13:44:04;14.25;;;10.18;;
40951;SDS011;26682;51.660;19.338;2024-03-08T13:46:48;20.38;;;11.48;;
40951;SDS011;26682;51.660;19.338;2024-03-08T13:49:35;15.55;;;10.10;;
40951;SDS011;26682;51.660;19.338;2024-03-08T13:52:18;17.95;;;10.95;;
40951;SDS011;26682;51.660;19.338;2024-03-08T13:55:01;17.05;;;11.98;;
40951;SDS011;26682;51.660;19.338;2024-03-08T13:57:43;25.73;;;12.27;;
40951;SDS011;26682;51.660;19.338;2024-03-08T14:00:27;15.88;;;11.40;;
40951;SDS011;26682;51.660;19.338;2024-03-08T14:03:15;17.48;;;11.60;;
40951;SDS011;26682;51.660;19.338;2024-03-08T14:05:58;20.42;;;10.40;;
40951;SDS011;26682;51.660;19.338;2024-03-08T14:08:41;18.33;;;10.88;;
40951;SDS011;26682;51.660;19.338;2024-03-08T14:11:24;22.67;;;11.65;;
40951;SDS011;26682;51.660;19.338;2024-03-08T14:14:07;17.75;;;11.32;;
40951;SDS011;26682;51.660;19.338;2024-03-08T14:16:51;19.08;;;11.85;;
40951;SDS011;26682;51.660;19.338;2024-03-08T14:19:34;16.92;;;11.40;;
40951;SDS011;26682;51.660;19.338;2024-03-08T14:22:17;16.73;;;10.60;;
40951;SDS011;26682;51.660;19.338;2024-03-08T14:24:59;15.20;;;10.93;;
40951;SDS011;26682;51.660;19.338;2024-03-08T14:27:46;21.10;;;12.50;;
40951;SDS011;26682;51.660;19.338;2024-03-08T14:30:29;17.65;;;11.20;;
40951;SDS011;26682;51.660;19.338;2024-03-08T14:33:14;22.88;;;12.35;;
40951;SDS011;26682;51.660;19.338;2024-03-08T14:35:58;15.05;;;10.30;;
40951;SDS011;26682;51.660;19.338;2024-03-08T14:38:41;15.40;;;10.82;;
40951;SDS011;26682;51.660;19.338;2024-03-08T14:41:23;16.55;;;10.10;;
40951;SDS011;26682;51.660;19.338;2024-03-08T14:44:06;15.75;;;10.23;;
40951;SDS011;26682;51.660;19.338;2024-03-08T14:46:48;17.67;;;10.05;;
40951;SDS011;26682;51.660;19.338;2024-03-08T14:49:31;20.00;;;12.10;;
40951;SDS011;26682;51.660;19.338;2024-03-08T14:52:18;18.55;;;11.05;;
40951;SDS011;26682;51.660;19.338;2024-03-08T14:55:10;18.95;;;10.90;;
40951;SDS011;26682;51.660;19.338;2024-03-08T14:57:57;16.05;;;10.05;;
40951;SDS011;26682;51.660;19.338;2024-03-08T15:00:41;17.10;;;10.70;;
40951;SDS011;26682;51.660;19.338;2024-03-08T15:03:23;15.30;;;11.15;;
40951;SDS011;26682;51.660;19.338;2024-03-08T15:06:08;17.33;;;11.25;;
40951;SDS011;26682;51.660;19.338;2024-03-08T15:08:51;16.25;;;10.70;;
40951;SDS011;26682;51.660;19.338;2024-03-08T15:11:34;16.35;;;11.27;;
40951;SDS011;26682;51.660;19.338;2024-03-08T15:14:17;20.42;;;11.45;;
40951;SDS011;26682;51.660;19.338;2024-03-08T15:17:01;17.48;;;12.18;;
40951;SDS011;26682;51.660;19.338;2024-03-08T15:19:49;17.90;;;11.45;;
40951;SDS011;26682;51.660;19.338;2024-03-08T15:22:31;30.35;;;14.73;;
40951;SDS011;26682;51.660;19.338;2024-03-08T15:25:14;19.55;;;12.98;;
40951;SDS011;26682;51.660;19.338;2024-03-08T15:28:02;26.17;;;12.25;;
40951;SDS011;26682;51.660;19.338;2024-03-08T15:30:52;24.63;;;13.48;;
40951;SDS011;26682;51.660;19.338;2024-03-08T15:33:39;21.40;;;12.70;;
40951;SDS011;26682;51.660;19.338;2024-03-08T15:36:30;21.95;;;12.73;;
40951;SDS011;26682;51.660;19.338;2024-03-08T15:39:15;22.98;;;11.77;;
40951;SDS011;26682;51.660;19.338;2024-03-08T15:41:57;16.75;;;11.85;;
40951;SDS011;26682;51.660;19.338;2024-03-08T15:44:40;29.52;;;15.40;;